sensor_id;sensor_type;location;lat;lon;timestamp;P1;durP1;ratioP1;P2;durP2;ratioP2
35444;SDS011;21562;49.476;6.086;2022-12-07T00:01:39;32.78;;;12.55;;
35444;SDS011;21562;49.476;6.086;2022-12-07T00:04:07;23.73;;;10.73;;
35444;SDS011;21562;49.476;6.086;2022-12-07T00:06:35;25.40;;;11.63;;
35444;SDS011;21562;49.476;6.086;2022-12-07T00:09:03;25.88;;;11.85;;
35444;SDS011;21562;49.476;6.086;2022-12-07T00:11:30;24.65;;;11.07;;
35444;SDS011;21562;49.476;6.086;2022-12-07T00:13:56;22.92;;;10.95;;
35444;SDS011;21562;49.476;6.086;2022-12-07T00:16:24;20.00;;;9.32;;
35444;SDS011;21562;49.476;6.086;2022-12-07T00:18:51;22.58;;;10.95;;
35444;SDS011;21562;49.476;6.086;2022-12-07T00:23:44;21.70;;;9.95;;
35444;SDS011;21562;49.476;6.086;2022-12-07T00:26:16;19.90;;;10.07;;
35444;SDS011;21562;49.476;6.086;2022-12-07T00:28:57;21.20;;;9.70;;
35444;SDS011;21562;49.476;6.086;2022-12-07T00:31:25;23.65;;;9.43;;
35444;SDS011;21562;49.476;6.086;2022-12-07T00:33:53;22.10;;;9.77;;
35444;SDS011;21562;49.476;6.086;2022-12-07T00:36:19;21.20;;;8.82;;
35444;SDS011;21562;49.476;6.086;2022-12-07T00:38:48;20.83;;;9.73;;
35444;SDS011;21562;49.476;6.086;2022-12-07T00:41:21;20.85;;;9.35;;
35444;SDS011;21562;49.476;6.086;2022-12-07T00:43:48;24.00;;;10.23;;
35444;SDS011;21562;49.476;6.086;2022-12-07T00:46:14;23.55;;;9.68;;
35444;SDS011;21562;49.476;6.086;2022-12-07T00:48:41;23.42;;;11.02;;
35444;SDS011;21562;49.476;6.086;2022-12-07T00:51:07;22.63;;;10.32;;
35444;SDS011;21562;49.476;6.086;2022-12-07T00:53:34;25.00;;;9.70;;
35444;SDS011;21562;49.476;6.086;2022-12-07T00:56:07;26.30;;;11.60;;
35444;SDS011;21562;49.476;6.086;2022-12-07T00:58:33;21.60;;;9.47;;
35444;SDS011;21562;49.476;6.086;2022-12-07T01:01:03;32.10;;;10.77;;
35444;SDS011;21562;49.476;6.086;2022-12-07T01:03:30;26.02;;;11.35;;
35444;SDS011;21562;49.476;6.086;2022-12-07T01:05:56;27.00;;;12.00;;
35444;SDS011;21562;49.476;6.086;2022-12-07T01:08:22;25.42;;;11.82;;
35444;SDS011;21562;49.476;6.086;2022-12-07T01:10:56;28.48;;;11.05;;
35444;SDS011;21562;49.476;6.086;2022-12-07T01:13:23;27.40;;;10.77;;
35444;SDS011;21562;49.476;6.086;2022-12-07T01:15:49;28.63;;;11.93;;
35444;SDS011;21562;49.476;6.086;2022-12-07T01:18:14;29.17;;;12.60;;
35444;SDS011;21562;49.476;6.086;2022-12-07T01:20:40;25.13;;;12.27;;
35444;SDS011;21562;49.476;6.086;2022-12-07T01:23:06;27.98;;;12.25;;
35444;SDS011;21562;49.476;6.086;2022-12-07T01:25:31;29.65;;;13.73;;
35444;SDS011;21562;49.476;6.086;2022-12-07T01:27:57;27.05;;;12.30;;
35444;SDS011;21562;49.476;6.086;2022-12-07T01:30:23;29.55;;;13.45;;
35444;SDS011;21562;49.476;6.086;2022-12-07T01:32:48;30.13;;;14.05;;
35444;SDS011;21562;49.476;6.086;2022-12-07T01:35:14;35.35;;;14.40;;
35444;SDS011;21562;49.476;6.086;2022-12-07T01:37:39;33.40;;;14.75;;
35444;SDS011;21562;49.476;6.086;2022-12-07T01:40:06;33.95;;;14.93;;
35444;SDS011;21562;49.476;6.086;2022-12-07T01:42:33;31.80;;;14.60;;
35444;SDS011;21562;49.476;6.086;2022-12-07T01:47:47;31.63;;;16.13;;
35444;SDS011;21562;49.476;6.086;2022-12-07T01:50:18;34.17;;;15.35;;
35444;SDS011;21562;49.476;6.086;2022-12-07T01:52:45;33.17;;;16.10;;
35444;SDS011;21562;49.476;6.086;2022-12-07T01:55:14;34.40;;;15.88;;
35444;SDS011;21562;49.476;6.086;2022-12-07T01:57:41;36.20;;;15.80;;
35444;SDS011;21562;49.476;6.086;2022-12-07T02:00:10;42.05;;;17.33;;
35444;SDS011;21562;49.476;6.086;2022-12-07T02:02:37;41.35;;;18.02;;
35444;SDS011;21562;49.476;6.086;2022-12-07T02:05:08;38.42;;;17.15;;
35444;SDS011;21562;49.476;6.086;2022-12-07T02:07:36;35.33;;;16.58;;
35444;SDS011;21562;49.476;6.086;2022-12-07T02:10:13;39.17;;;18.00;;
35444;SDS011;21562;49.476;6.086;2022-12-07T02:12:47;40.13;;;17.05;;
35444;SDS011;21562;49.476;6.086;2022-12-07T02:15:17;41.67;;;17.25;;
35444;SDS011;21562;49.476;6.086;2022-12-07T02:25:31;40.67;;;18.85;;
35444;SDS011;21562;49.476;6.086;2022-12-07T02:31:21;39.05;;;18.70;;
35444;SDS011;21562;49.476;6.086;2022-12-07T02:33:50;37.80;;;16.63;;
35444;SDS011;21562;49.476;6.086;2022-12-07T02:36:28;40.08;;;16.70;;
35444;SDS011;21562;49.476;6.086;2022-12-07T02:39:01;37.10;;;16.85;;
35444;SDS011;21562;49.476;6.086;2022-12-07T02:41:36;39.22;;;18.05;;
35444;SDS011;21562;49.476;6.086;2022-12-07T02:44:08;40.08;;;17.80;;
35444;SDS011;21562;49.476;6.086;2022-12-07T02:46:47;35.97;;;17.05;;
35444;SDS011;21562;49.476;6.086;2022-12-07T02:49:27;41.30;;;17.08;;
35444;SDS011;21562;49.476;6.086;2022-12-07T02:51:54;42.97;;;17.17;;
35444;SDS011;21562;49.476;6.086;2022-12-07T02:54:20;40.20;;;16.67;;
35444;SDS011;21562;49.476;6.086;2022-12-07T02:56:48;40.17;;;16.75;;
35444;SDS011;21562;49.476;6.086;2022-12-07T03:06:02;37.88;;;17.15;;
35444;SDS011;21562;49.476;6.086;2022-12-07T03:16:08;36.00;;;15.73;;
35444;SDS011;21562;49.476;6.086;2022-12-07T03:19:15;34.92;;;15.18;;
35444;SDS011;21562;49.476;6.086;2022-12-07T03:21:44;36.15;;;15.68;;
35444;SDS011;21562;49.476;6.086;2022-12-07T03:24:15;30.65;;;12.80;;
35444;SDS011;21562;49.476;6.086;2022-12-07T03:26:49;32.50;;;13.40;;
35444;SDS011;21562;49.476;6.086;2022-12-07T03:29:23;30.50;;;14.07;;
35444;SDS011;21562;49.476;6.086;2022-12-07T03:35:00;29.77;;;12.77;;
35444;SDS011;21562;49.476;6.086;2022-12-07T03:40:15;31.75;;;14.10;;
35444;SDS011;21562;49.476;6.086;2022-12-07T03:42:53;33.67;;;14.02;;
35444;SDS011;21562;49.476;6.086;2022-12-07T03:45:21;35.80;;;15.52;;
35444;SDS011;21562;49.476;6.086;2022-12-07T03:50:36;37.50;;;14.77;;
35444;SDS011;21562;49.476;6.086;2022-12-07T03:53:12;29.67;;;14.35;;
35444;SDS011;21562;49.476;6.086;2022-12-07T03:55:43;36.72;;;17.85;;
35444;SDS011;21562;49.476;6.086;2022-12-07T03:58:13;46.45;;;17.92;;
35444;SDS011;21562;49.476;6.086;2022-12-07T04:00:43;38.00;;;17.15;;
35444;SDS011;21562;49.476;6.086;2022-12-07T04:03:10;41.65;;;18.30;;
35444;SDS011;21562;49.476;6.086;2022-12-07T04:05:36;40.58;;;18.20;;
35444;SDS011;21562;49.476;6.086;2022-12-07T04:08:03;42.35;;;18.08;;
35444;SDS011;21562;49.476;6.086;2022-12-07T04:10:29;40.78;;;18.20;;
35444;SDS011;21562;49.476;6.086;2022-12-07T04:12:55;46.85;;;19.23;;
35444;SDS011;21562;49.476;6.086;2022-12-07T04:15:21;41.42;;;19.33;;
35444;SDS011;21562;49.476;6.086;2022-12-07T04:17:47;41.97;;;19.23;;
35444;SDS011;21562;49.476;6.086;2022-12-07T04:20:12;43.00;;;18.17;;
35444;SDS011;21562;49.476;6.086;2022-12-07T04:22:38;54.08;;;20.75;;
35444;SDS011;21562;49.476;6.086;2022-12-07T04:25:04;48.40;;;20.40;;
35444;SDS011;21562;49.476;6.086;2022-12-07T04:27:30;47.72;;;19.50;;
35444;SDS011;21562;49.476;6.086;2022-12-07T04:29:56;42.97;;;19.17;;
35444;SDS011;21562;49.476;6.086;2022-12-07T04:32:22;49.20;;;19.15;;
35444;SDS011;21562;49.476;6.086;2022-12-07T04:34:48;48.03;;;20.77;;
35444;SDS011;21562;49.476;6.086;2022-12-07T04:37:13;47.42;;;19.88;;
35444;SDS011;21562;49.476;6.086;2022-12-07T04:39:39;46.53;;;18.80;;
35444;SDS011;21562;49.476;6.086;2022-12-07T04:42:05;45.30;;;19.50;;
35444;SDS011;21562;49.476;6.086;2022-12-07T04:44:30;41.78;;;19.15;;
35444;SDS011;21562;49.476;6.086;2022-12-07T04:46:56;40.58;;;17.92;;
35444;SDS011;21562;49.476;6.086;2022-12-07T04:49:22;42.58;;;18.95;;
35444;SDS011;21562;49.476;6.086;2022-12-07T04:51:48;44.67;;;20.27;;
35444;SDS011;21562;49.476;6.086;2022-12-07T04:54:14;44.80;;;16.90;;
35444;SDS011;21562;49.476;6.086;2022-12-07T04:56:41;44.35;;;17.63;;
35444;SDS011;21562;49.476;6.086;2022-12-07T04:59:07;40.50;;;17.50;;
35444;SDS011;21562;49.476;6.086;2022-12-07T05:01:34;40.33;;;17.98;;
35444;SDS011;21562;49.476;6.086;2022-12-07T05:04:00;44.67;;;17.45;;
35444;SDS011;21562;49.476;6.086;2022-12-07T05:06:25;41.53;;;19.25;;
35444;SDS011;21562;49.476;6.086;2022-12-07T05:08:51;38.53;;;17.73;;
35444;SDS011;21562;49.476;6.086;2022-12-07T05:11:17;39.50;;;17.05;;
35444;SDS011;21562;49.476;6.086;2022-12-07T05:14:01;44.22;;;18.77;;
35444;SDS011;21562;49.476;6.086;2022-12-07T05:16:29;43.30;;;17.92;;
35444;SDS011;21562;49.476;6.086;2022-12-07T05:18:54;40.50;;;18.23;;
35444;SDS011;21562;49.476;6.086;2022-12-07T05:21:20;43.75;;;18.75;;
35444;SDS011;21562;49.476;6.086;2022-12-07T05:23:46;46.85;;;19.65;;
35444;SDS011;21562;49.476;6.086;2022-12-07T05:26:12;44.15;;;17.65;;
35444;SDS011;21562;49.476;6.086;2022-12-07T05:28:37;47.38;;;19.88;;
35444;SDS011;21562;49.476;6.086;2022-12-07T05:31:03;41.95;;;17.17;;
35444;SDS011;21562;49.476;6.086;2022-12-07T05:33:29;42.67;;;18.45;;
35444;SDS011;21562;49.476;6.086;2022-12-07T05:35:54;39.65;;;17.88;;
35444;SDS011;21562;49.476;6.086;2022-12-07T05:38:20;40.92;;;17.88;;
35444;SDS011;21562;49.476;6.086;2022-12-07T05:40:46;41.08;;;18.48;;
35444;SDS011;21562;49.476;6.086;2022-12-07T05:43:11;43.65;;;18.83;;
35444;SDS011;21562;49.476;6.086;2022-12-07T05:45:37;45.30;;;18.70;;
35444;SDS011;21562;49.476;6.086;2022-12-07T05:48:03;44.47;;;19.85;;
35444;SDS011;21562;49.476;6.086;2022-12-07T05:50:28;44.13;;;19.08;;
35444;SDS011;21562;49.476;6.086;2022-12-07T05:52:54;52.50;;;18.92;;
35444;SDS011;21562;49.476;6.086;2022-12-07T05:55:20;41.53;;;18.17;;
35444;SDS011;21562;49.476;6.086;2022-12-07T05:57:45;41.70;;;18.58;;
35444;SDS011;21562;49.476;6.086;2022-12-07T06:00:31;40.20;;;18.15;;
35444;SDS011;21562;49.476;6.086;2022-12-07T06:02:57;40.85;;;18.95;;
35444;SDS011;21562;49.476;6.086;2022-12-07T06:05:22;40.53;;;18.30;;
35444;SDS011;21562;49.476;6.086;2022-12-07T06:07:48;41.53;;;18.10;;
35444;SDS011;21562;49.476;6.086;2022-12-07T06:10:14;42.25;;;17.50;;
35444;SDS011;21562;49.476;6.086;2022-12-07T06:12:40;42.83;;;18.65;;
35444;SDS011;21562;49.476;6.086;2022-12-07T06:15:08;43.38;;;18.23;;
35444;SDS011;21562;49.476;6.086;2022-12-07T06:17:35;43.75;;;19.92;;
35444;SDS011;21562;49.476;6.086;2022-12-07T06:20:01;42.15;;;18.10;;
35444;SDS011;21562;49.476;6.086;2022-12-07T06:22:27;43.92;;;18.35;;
35444;SDS011;21562;49.476;6.086;2022-12-07T06:24:53;44.72;;;18.38;;
35444;SDS011;21562;49.476;6.086;2022-12-07T06:27:19;37.70;;;17.75;;
35444;SDS011;21562;49.476;6.086;2022-12-07T06:29:44;38.80;;;16.35;;
35444;SDS011;21562;49.476;6.086;2022-12-07T06:32:10;40.15;;;14.95;;
35444;SDS011;21562;49.476;6.086;2022-12-07T06:34:36;37.13;;;14.30;;
35444;SDS011;21562;49.476;6.086;2022-12-07T06:37:02;30.50;;;12.38;;
35444;SDS011;21562;49.476;6.086;2022-12-07T06:39:28;31.23;;;13.65;;
35444;SDS011;21562;49.476;6.086;2022-12-07T06:41:54;31.30;;;15.48;;
35444;SDS011;21562;49.476;6.086;2022-12-07T06:44:21;33.83;;;13.80;;
35444;SDS011;21562;49.476;6.086;2022-12-07T06:46:47;31.35;;;13.50;;
35444;SDS011;21562;49.476;6.086;2022-12-07T06:49:14;42.92;;;14.05;;
35444;SDS011;21562;49.476;6.086;2022-12-07T06:51:39;31.65;;;13.90;;
35444;SDS011;21562;49.476;6.086;2022-12-07T06:54:08;35.30;;;14.43;;
35444;SDS011;21562;49.476;6.086;2022-12-07T06:56:34;33.70;;;12.88;;
35444;SDS011;21562;49.476;6.086;2022-12-07T06:59:00;37.53;;;14.48;;
35444;SDS011;21562;49.476;6.086;2022-12-07T07:01:26;36.28;;;14.95;;
35444;SDS011;21562;49.476;6.086;2022-12-07T07:03:51;34.38;;;14.18;;
35444;SDS011;21562;49.476;6.086;2022-12-07T07:06:17;32.25;;;12.35;;
35444;SDS011;21562;49.476;6.086;2022-12-07T07:08:43;33.08;;;13.38;;
35444;SDS011;21562;49.476;6.086;2022-12-07T07:11:09;36.22;;;13.82;;
35444;SDS011;21562;49.476;6.086;2022-12-07T07:13:36;39.22;;;14.38;;
35444;SDS011;21562;49.476;6.086;2022-12-07T07:16:02;36.50;;;14.30;;
35444;SDS011;21562;49.476;6.086;2022-12-07T07:18:28;36.95;;;13.77;;
35444;SDS011;21562;49.476;6.086;2022-12-07T07:20:54;35.55;;;15.10;;
35444;SDS011;21562;49.476;6.086;2022-12-07T07:23:20;35.58;;;14.75;;
35444;SDS011;21562;49.476;6.086;2022-12-07T07:25:46;39.20;;;14.77;;
35444;SDS011;21562;49.476;6.086;2022-12-07T07:28:13;38.13;;;14.68;;
35444;SDS011;21562;49.476;6.086;2022-12-07T07:30:39;34.95;;;13.40;;
35444;SDS011;21562;49.476;6.086;2022-12-07T07:33:05;32.10;;;13.35;;
35444;SDS011;21562;49.476;6.086;2022-12-07T07:35:31;35.42;;;14.25;;
35444;SDS011;21562;49.476;6.086;2022-12-07T07:37:58;37.30;;;14.20;;
35444;SDS011;21562;49.476;6.086;2022-12-07T07:40:25;34.03;;;13.23;;
35444;SDS011;21562;49.476;6.086;2022-12-07T07:42:52;30.42;;;12.90;;
35444;SDS011;21562;49.476;6.086;2022-12-07T07:45:18;30.20;;;12.57;;
35444;SDS011;21562;49.476;6.086;2022-12-07T07:47:46;26.40;;;11.52;;
35444;SDS011;21562;49.476;6.086;2022-12-07T07:50:12;30.13;;;12.73;;
35444;SDS011;21562;49.476;6.086;2022-12-07T07:52:38;28.08;;;11.52;;
35444;SDS011;21562;49.476;6.086;2022-12-07T07:55:04;25.42;;;11.48;;
35444;SDS011;21562;49.476;6.086;2022-12-07T07:57:30;22.13;;;9.85;;
35444;SDS011;21562;49.476;6.086;2022-12-07T07:59:56;29.35;;;11.25;;
35444;SDS011;21562;49.476;6.086;2022-12-07T08:02:21;23.67;;;9.77;;
35444;SDS011;21562;49.476;6.086;2022-12-07T08:04:47;25.27;;;11.05;;
35444;SDS011;21562;49.476;6.086;2022-12-07T08:07:13;26.30;;;10.07;;
35444;SDS011;21562;49.476;6.086;2022-12-07T08:09:39;27.95;;;10.10;;
35444;SDS011;21562;49.476;6.086;2022-12-07T08:12:05;26.02;;;10.73;;
35444;SDS011;21562;49.476;6.086;2022-12-07T08:14:31;20.85;;;9.90;;
35444;SDS011;21562;49.476;6.086;2022-12-07T08:16:57;26.58;;;9.65;;
35444;SDS011;21562;49.476;6.086;2022-12-07T08:19:23;20.38;;;9.40;;
35444;SDS011;21562;49.476;6.086;2022-12-07T08:21:49;24.63;;;10.30;;
35444;SDS011;21562;49.476;6.086;2022-12-07T08:24:15;21.23;;;10.43;;
35444;SDS011;21562;49.476;6.086;2022-12-07T08:26:41;27.75;;;10.93;;
35444;SDS011;21562;49.476;6.086;2022-12-07T08:29:06;22.80;;;9.70;;
35444;SDS011;21562;49.476;6.086;2022-12-07T08:31:32;28.48;;;10.80;;
35444;SDS011;21562;49.476;6.086;2022-12-07T08:33:58;22.75;;;10.02;;
35444;SDS011;21562;49.476;6.086;2022-12-07T08:36:24;20.75;;;8.73;;
35444;SDS011;21562;49.476;6.086;2022-12-07T08:38:49;22.85;;;9.80;;
35444;SDS011;21562;49.476;6.086;2022-12-07T08:41:16;22.35;;;9.93;;
35444;SDS011;21562;49.476;6.086;2022-12-07T08:43:42;22.80;;;9.18;;
35444;SDS011;21562;49.476;6.086;2022-12-07T08:48:55;18.17;;;8.60;;
35444;SDS011;21562;49.476;6.086;2022-12-07T08:51:34;22.85;;;7.97;;
35444;SDS011;21562;49.476;6.086;2022-12-07T08:54:01;16.67;;;7.88;;
35444;SDS011;21562;49.476;6.086;2022-12-07T08:56:30;21.83;;;7.80;;
35444;SDS011;21562;49.476;6.086;2022-12-07T08:58:56;22.25;;;8.15;;
35444;SDS011;21562;49.476;6.086;2022-12-07T09:01:22;16.15;;;8.18;;
35444;SDS011;21562;49.476;6.086;2022-12-07T09:03:48;20.88;;;9.00;;
35444;SDS011;21562;49.476;6.086;2022-12-07T09:06:14;21.70;;;8.43;;
35444;SDS011;21562;49.476;6.086;2022-12-07T09:08:41;19.45;;;8.32;;
35444;SDS011;21562;49.476;6.086;2022-12-07T09:11:10;18.27;;;8.00;;
35444;SDS011;21562;49.476;6.086;2022-12-07T09:13:36;17.55;;;8.63;;
35444;SDS011;21562;49.476;6.086;2022-12-07T09:16:02;18.63;;;8.48;;
35444;SDS011;21562;49.476;6.086;2022-12-07T09:18:27;20.42;;;9.32;;
35444;SDS011;21562;49.476;6.086;2022-12-07T09:20:53;18.67;;;8.63;;
35444;SDS011;21562;49.476;6.086;2022-12-07T09:23:19;16.98;;;7.90;;
35444;SDS011;21562;49.476;6.086;2022-12-07T09:25:44;23.33;;;8.25;;
35444;SDS011;21562;49.476;6.086;2022-12-07T09:28:10;15.77;;;7.45;;
35444;SDS011;21562;49.476;6.086;2022-12-07T09:30:36;16.88;;;6.75;;
35444;SDS011;21562;49.476;6.086;2022-12-07T09:33:01;16.95;;;7.40;;
35444;SDS011;21562;49.476;6.086;2022-12-07T09:35:27;19.45;;;8.65;;
35444;SDS011;21562;49.476;6.086;2022-12-07T09:37:53;19.38;;;7.85;;
35444;SDS011;21562;49.476;6.086;2022-12-07T09:40:19;21.25;;;8.55;;
35444;SDS011;21562;49.476;6.086;2022-12-07T09:42:48;17.98;;;8.45;;
35444;SDS011;21562;49.476;6.086;2022-12-07T09:45:18;23.42;;;8.73;;
35444;SDS011;21562;49.476;6.086;2022-12-07T09:47:50;16.15;;;8.13;;
35444;SDS011;21562;49.476;6.086;2022-12-07T09:50:17;14.77;;;7.35;;
35444;SDS011;21562;49.476;6.086;2022-12-07T09:52:46;18.45;;;7.32;;
35444;SDS011;21562;49.476;6.086;2022-12-07T09:55:14;12.93;;;6.38;;
35444;SDS011;21562;49.476;6.086;2022-12-07T09:57:44;15.15;;;7.53;;
35444;SDS011;21562;49.476;6.086;2022-12-07T10:00:12;16.55;;;6.95;;
35444;SDS011;21562;49.476;6.086;2022-12-07T10:02:54;16.08;;;6.70;;
35444;SDS011;21562;49.476;6.086;2022-12-07T10:05:44;15.98;;;8.23;;
35444;SDS011;21562;49.476;6.086;2022-12-07T10:08:13;17.63;;;7.10;;
35444;SDS011;21562;49.476;6.086;2022-12-07T10:10:41;14.07;;;3.65;;
35444;SDS011;21562;49.476;6.086;2022-12-07T10:15:45;23.00;;;7.70;;
35444;SDS011;21562;49.476;6.086;2022-12-07T10:23:32;11.10;;;5.38;;
35444;SDS011;21562;49.476;6.086;2022-12-07T10:25:59;11.25;;;5.97;;
35444;SDS011;21562;49.476;6.086;2022-12-07T10:31:19;19.50;;;8.05;;
35444;SDS011;21562;49.476;6.086;2022-12-07T10:33:52;14.82;;;6.63;;
35444;SDS011;21562;49.476;6.086;2022-12-07T10:36:22;15.38;;;6.53;;
35444;SDS011;21562;49.476;6.086;2022-12-07T10:38:50;19.40;;;7.30;;
35444;SDS011;21562;49.476;6.086;2022-12-07T10:41:24;16.67;;;7.20;;
35444;SDS011;21562;49.476;6.086;2022-12-07T10:43:54;13.73;;;6.43;;
35444;SDS011;21562;49.476;6.086;2022-12-07T10:52:57;20.70;;;8.48;;
35444;SDS011;21562;49.476;6.086;2022-12-07T10:59:12;20.35;;;8.73;;
35444;SDS011;21562;49.476;6.086;2022-12-07T11:07:34;23.92;;;9.98;;
35444;SDS011;21562;49.476;6.086;2022-12-07T11:16:02;15.48;;;6.45;;
35444;SDS011;21562;49.476;6.086;2022-12-07T11:18:50;16.85;;;5.78;;
35444;SDS011;21562;49.476;6.086;2022-12-07T11:21:43;28.90;;;8.73;;
35444;SDS011;21562;49.476;6.086;2022-12-07T11:24:32;21.70;;;7.53;;
35444;SDS011;21562;49.476;6.086;2022-12-07T11:38:07;10.98;;;6.00;;
35444;SDS011;21562;49.476;6.086;2022-12-07T11:40:40;11.13;;;5.38;;
35444;SDS011;21562;49.476;6.086;2022-12-07T11:46:03;17.08;;;6.70;;
35444;SDS011;21562;49.476;6.086;2022-12-07T11:48:35;15.30;;;5.95;;
35444;SDS011;21562;49.476;6.086;2022-12-07T11:51:12;15.20;;;7.20;;
35444;SDS011;21562;49.476;6.086;2022-12-07T11:53:44;14.48;;;6.68;;
35444;SDS011;21562;49.476;6.086;2022-12-07T11:56:19;15.35;;;7.28;;
35444;SDS011;21562;49.476;6.086;2022-12-07T12:03:51;18.25;;;6.47;;
35444;SDS011;21562;49.476;6.086;2022-12-07T12:06:36;14.88;;;6.65;;
35444;SDS011;21562;49.476;6.086;2022-12-07T12:09:11;15.20;;;7.00;;
35444;SDS011;21562;49.476;6.086;2022-12-07T12:20:35;16.77;;;6.95;;
35444;SDS011;21562;49.476;6.086;2022-12-07T12:23:09;16.83;;;7.25;;
35444;SDS011;21562;49.476;6.086;2022-12-07T12:25:40;15.43;;;6.53;;
35444;SDS011;21562;49.476;6.086;2022-12-07T12:33:36;19.52;;;8.07;;
35444;SDS011;21562;49.476;6.086;2022-12-07T12:36:23;22.35;;;8.05;;
35444;SDS011;21562;49.476;6.086;2022-12-07T12:47:02;13.88;;;5.75;;
35444;SDS011;21562;49.476;6.086;2022-12-07T12:53:35;12.38;;;5.30;;
35444;SDS011;21562;49.476;6.086;2022-12-07T12:58:37;16.40;;;6.05;;
35444;SDS011;21562;49.476;6.086;2022-12-07T13:03:51;16.98;;;7.35;;
35444;SDS011;21562;49.476;6.086;2022-12-07T13:08:49;17.20;;;7.22;;
35444;SDS011;21562;49.476;6.086;2022-12-07T13:11:17;14.02;;;6.55;;
35444;SDS011;21562;49.476;6.086;2022-12-07T13:20:03;16.02;;;6.50;;
35444;SDS011;21562;49.476;6.086;2022-12-07T13:27:37;16.65;;;6.93;;
35444;SDS011;21562;49.476;6.086;2022-12-07T13:30:38;19.38;;;6.80;;
35444;SDS011;21562;49.476;6.086;2022-12-07T13:32:58;15.60;;;6.15;;
35444;SDS011;21562;49.476;6.086;2022-12-07T13:35:28;17.45;;;6.75;;
35444;SDS011;21562;49.476;6.086;2022-12-07T13:37:57;15.25;;;5.90;;
35444;SDS011;21562;49.476;6.086;2022-12-07T13:40:23;21.75;;;5.85;;
35444;SDS011;21562;49.476;6.086;2022-12-07T13:42:56;12.98;;;6.20;;
35444;SDS011;21562;49.476;6.086;2022-12-07T13:45:24;15.15;;;6.90;;
35444;SDS011;21562;49.476;6.086;2022-12-07T13:48:14;14.38;;;6.07;;
35444;SDS011;21562;49.476;6.086;2022-12-07T13:50:57;19.35;;;6.75;;
35444;SDS011;21562;49.476;6.086;2022-12-07T13:53:24;14.25;;;6.15;;
35444;SDS011;21562;49.476;6.086;2022-12-07T13:55:55;22.65;;;7.45;;
35444;SDS011;21562;49.476;6.086;2022-12-07T13:58:25;18.50;;;6.75;;
35444;SDS011;21562;49.476;6.086;2022-12-07T14:00:54;19.45;;;7.35;;
35444;SDS011;21562;49.476;6.086;2022-12-07T14:06:05;15.60;;;5.85;;
35444;SDS011;21562;49.476;6.086;2022-12-07T14:08:31;14.40;;;5.50;;
35444;SDS011;21562;49.476;6.086;2022-12-07T14:10:57;15.27;;;6.20;;
35444;SDS011;21562;49.476;6.086;2022-12-07T14:13:36;16.35;;;6.43;;
35444;SDS011;21562;49.476;6.086;2022-12-07T14:16:05;11.50;;;6.47;;
35444;SDS011;21562;49.476;6.086;2022-12-07T14:18:52;14.18;;;5.90;;
35444;SDS011;21562;49.476;6.086;2022-12-07T14:21:21;12.60;;;5.95;;
35444;SDS011;21562;49.476;6.086;2022-12-07T14:26:35;12.50;;;5.47;;
35444;SDS011;21562;49.476;6.086;2022-12-07T14:31:48;12.00;;;5.07;;
35444;SDS011;21562;49.476;6.086;2022-12-07T14:34:13;12.38;;;6.22;;
35444;SDS011;21562;49.476;6.086;2022-12-07T14:36:39;16.83;;;6.35;;
35444;SDS011;21562;49.476;6.086;2022-12-07T14:39:05;15.07;;;6.55;;
35444;SDS011;21562;49.476;6.086;2022-12-07T14:41:30;15.02;;;5.90;;
35444;SDS011;21562;49.476;6.086;2022-12-07T14:44:15;13.02;;;5.95;;
35444;SDS011;21562;49.476;6.086;2022-12-07T14:46:41;12.35;;;5.13;;
35444;SDS011;21562;49.476;6.086;2022-12-07T14:49:06;11.82;;;5.65;;
35444;SDS011;21562;49.476;6.086;2022-12-07T14:51:32;10.73;;;5.70;;
35444;SDS011;21562;49.476;6.086;2022-12-07T14:54:00;18.60;;;7.18;;
35444;SDS011;21562;49.476;6.086;2022-12-07T14:56:26;26.33;;;7.43;;
35444;SDS011;21562;49.476;6.086;2022-12-07T14:58:52;16.63;;;7.47;;
35444;SDS011;21562;49.476;6.086;2022-12-07T15:01:18;30.75;;;11.25;;
35444;SDS011;21562;49.476;6.086;2022-12-07T15:03:44;17.70;;;8.63;;
35444;SDS011;21562;49.476;6.086;2022-12-07T15:06:10;28.40;;;9.55;;
35444;SDS011;21562;49.476;6.086;2022-12-07T15:08:39;29.50;;;11.20;;
35444;SDS011;21562;49.476;6.086;2022-12-07T15:11:05;28.55;;;11.65;;
35444;SDS011;21562;49.476;6.086;2022-12-07T15:13:30;22.30;;;9.95;;
35444;SDS011;21562;49.476;6.086;2022-12-07T15:16:17;22.35;;;9.52;;
35444;SDS011;21562;49.476;6.086;2022-12-07T15:18:45;20.10;;;8.15;;
35444;SDS011;21562;49.476;6.086;2022-12-07T15:21:14;22.30;;;8.13;;
35444;SDS011;21562;49.476;6.086;2022-12-07T15:23:41;20.00;;;7.93;;
35444;SDS011;21562;49.476;6.086;2022-12-07T15:26:07;19.75;;;8.10;;
35444;SDS011;21562;49.476;6.086;2022-12-07T15:28:34;18.02;;;8.88;;
35444;SDS011;21562;49.476;6.086;2022-12-07T15:31:00;23.50;;;9.70;;
35444;SDS011;21562;49.476;6.086;2022-12-07T15:33:25;23.02;;;9.82;;
35444;SDS011;21562;49.476;6.086;2022-12-07T15:35:51;19.90;;;8.93;;
35444;SDS011;21562;49.476;6.086;2022-12-07T15:38:17;17.60;;;7.65;;
35444;SDS011;21562;49.476;6.086;2022-12-07T15:40:42;19.13;;;8.75;;
35444;SDS011;21562;49.476;6.086;2022-12-07T15:43:12;20.50;;;9.68;;
35444;SDS011;21562;49.476;6.086;2022-12-07T15:45:56;20.20;;;9.63;;
35444;SDS011;21562;49.476;6.086;2022-12-07T15:48:22;23.63;;;9.13;;
35444;SDS011;21562;49.476;6.086;2022-12-07T15:50:48;24.75;;;9.98;;
35444;SDS011;21562;49.476;6.086;2022-12-07T15:53:13;22.42;;;10.05;;
35444;SDS011;21562;49.476;6.086;2022-12-07T15:55:39;21.15;;;9.60;;
35444;SDS011;21562;49.476;6.086;2022-12-07T15:58:06;23.27;;;10.73;;
35444;SDS011;21562;49.476;6.086;2022-12-07T16:00:32;23.85;;;10.27;;
35444;SDS011;21562;49.476;6.086;2022-12-07T16:02:57;24.95;;;9.13;;
35444;SDS011;21562;49.476;6.086;2022-12-07T16:05:23;21.13;;;9.70;;
35444;SDS011;21562;49.476;6.086;2022-12-07T16:07:49;20.45;;;10.55;;
35444;SDS011;21562;49.476;6.086;2022-12-07T16:10:15;21.80;;;9.98;;
35444;SDS011;21562;49.476;6.086;2022-12-07T16:12:41;21.30;;;9.27;;
35444;SDS011;21562;49.476;6.086;2022-12-07T16:15:07;23.05;;;10.48;;
35444;SDS011;21562;49.476;6.086;2022-12-07T16:17:33;23.05;;;9.65;;
35444;SDS011;21562;49.476;6.086;2022-12-07T16:19:59;19.10;;;9.50;;
35444;SDS011;21562;49.476;6.086;2022-12-07T16:22:24;19.85;;;9.93;;
35444;SDS011;21562;49.476;6.086;2022-12-07T16:24:50;18.73;;;9.73;;
35444;SDS011;21562;49.476;6.086;2022-12-07T16:27:15;20.30;;;9.00;;
35444;SDS011;21562;49.476;6.086;2022-12-07T16:29:41;30.05;;;10.20;;
35444;SDS011;21562;49.476;6.086;2022-12-07T16:32:07;22.80;;;9.63;;
35444;SDS011;21562;49.476;6.086;2022-12-07T16:34:32;21.58;;;10.23;;
35444;SDS011;21562;49.476;6.086;2022-12-07T16:36:58;23.33;;;9.63;;
35444;SDS011;21562;49.476;6.086;2022-12-07T16:39:24;18.80;;;8.10;;
35444;SDS011;21562;49.476;6.086;2022-12-07T16:41:49;21.60;;;9.23;;
35444;SDS011;21562;49.476;6.086;2022-12-07T16:44:15;29.40;;;9.15;;
35444;SDS011;21562;49.476;6.086;2022-12-07T16:46:41;21.25;;;9.15;;
35444;SDS011;21562;49.476;6.086;2022-12-07T16:49:11;22.60;;;9.40;;
35444;SDS011;21562;49.476;6.086;2022-12-07T16:51:40;33.63;;;14.27;;
35444;SDS011;21562;49.476;6.086;2022-12-07T16:54:09;26.85;;;9.73;;
35444;SDS011;21562;49.476;6.086;2022-12-07T16:56:36;23.55;;;10.00;;
35444;SDS011;21562;49.476;6.086;2022-12-07T16:59:02;20.42;;;10.02;;
35444;SDS011;21562;49.476;6.086;2022-12-07T17:01:28;28.42;;;11.73;;
35444;SDS011;21562;49.476;6.086;2022-12-07T17:03:54;21.98;;;10.75;;